Terminal Aerodrome Forecast
Issued by NWS Jackson, MS

Home | Current Version | Previous Version | Text Only | Print | Product List | Glossary On
Versions: 1 2 3 4 5 6 7 8 9 10 11 12 13 14
000
FTUS44 KJAN 220706 AAA
TAFGWO
TAF AMD
KGWO 220706Z 2207/2306 07005KT 1/4SM FG VV001
     FM221400 02004KT 4SM BR SCT007
     FM221600 03006KT P6SM SCT030
     FM230000 VRB04KT P6SM SKC=

USA.gov is the U.S. government's official web portal to all federal, state and local government web resources and services.